createdAt,value
2019-06-20T00:05:48.747Z,14.68
2019-06-20T00:11:51.353Z,7.80
2019-06-20T00:17:53.078Z,8.30
2019-06-20T00:23:54.601Z,8.23
2019-06-20T00:29:56.103Z,9.40
2019-06-20T00:40:25.195Z,11.05
2019-06-20T00:46:26.835Z,7.28
2019-06-20T00:52:28.438Z,6.25
2019-06-20T00:58:38.753Z,9.13
2019-06-20T01:04:40.266Z,6.85
2019-06-20T01:10:41.768Z,10.85
2019-06-20T01:16:43.406Z,7.08
2019-06-20T01:22:45.208Z,7.80
2019-06-20T01:28:46.923Z,7.60
2019-06-20T01:34:48.488Z,9.25
2019-06-20T01:40:50.250Z,9.38
2019-06-20T01:46:51.734Z,16.67
2019-06-20T01:52:53.260Z,8.68
2019-06-20T01:58:54.824Z,7.95
2019-06-20T02:04:56.379Z,8.95
2019-06-20T02:10:58.033Z,5.97
2019-06-20T02:16:59.515Z,11.48
2019-06-20T02:23:01.271Z,5.25
2019-06-20T02:29:03.101Z,7.53
2019-06-20T02:35:05.636Z,7.90
2019-06-20T02:41:07.412Z,6.33
2019-06-20T02:47:08.886Z,9.20
2019-06-20T02:53:10.692Z,7.53
2019-06-20T02:59:12.188Z,15.75
2019-06-20T03:05:14.243Z,12.07
2019-06-20T03:11:15.724Z,15.08
2019-06-20T03:17:17.472Z,12.25
2019-06-20T03:23:19.041Z,11.22
2019-06-20T03:29:20.623Z,13.83
2019-06-20T03:35:22.122Z,19.42
2019-06-20T03:41:23.650Z,16.80
2019-06-20T03:47:25.245Z,18.05
2019-06-20T03:53:26.780Z,18.27
2019-06-20T03:59:29.020Z,23.85
2019-06-20T04:05:30.656Z,19.67
2019-06-20T04:11:32.360Z,16.07
2019-06-20T04:17:33.965Z,14.23
2019-06-20T04:23:36.588Z,14.63
2019-06-20T04:29:38.142Z,13.90
2019-06-20T04:35:39.825Z,16.25
2019-06-20T04:41:41.340Z,16.60
2019-06-20T04:47:43.659Z,14.53
2019-06-20T04:53:45.253Z,22.22
2019-06-20T04:59:48.717Z,21.42
2019-06-20T05:05:50.289Z,14.95
2019-06-20T05:11:51.785Z,12.15
2019-06-20T05:17:53.379Z,12.45
2019-06-20T05:23:54.909Z,15.78
2019-06-20T05:29:56.481Z,9.70
2019-06-20T05:35:58.181Z,9.50
2019-06-20T05:41:59.698Z,8.20
2019-06-20T05:48:03.508Z,9.58
2019-06-20T05:54:05.185Z,9.18
2019-06-20T06:00:08.727Z,10.98
2019-06-20T06:06:10.364Z,12.58
2019-06-20T06:12:12.623Z,12.35
2019-06-20T06:18:14.208Z,8.70
2019-06-20T06:24:15.698Z,9.75
2019-06-20T06:30:17.596Z,11.03
2019-06-20T06:36:19.069Z,7.95
2019-06-20T06:42:20.842Z,10.03
2019-06-20T06:48:22.409Z,10.23
2019-06-20T06:54:24.081Z,10.25
2019-06-20T07:00:25.572Z,11.97
2019-06-20T07:06:27.237Z,10.25
2019-06-20T07:12:28.839Z,10.70
2019-06-20T07:18:31.420Z,10.98
2019-06-20T07:24:32.964Z,12.28
2019-06-20T07:30:34.415Z,7.55
2019-06-20T07:36:36.015Z,6.97
2019-06-20T07:42:37.530Z,6.33
2019-06-20T07:48:39.029Z,9.18
2019-06-20T07:54:40.768Z,11.38
2019-06-20T08:00:42.465Z,7.85
2019-06-20T08:06:43.981Z,10.05
2019-06-20T08:12:45.641Z,6.65
2019-06-20T08:18:47.262Z,6.40
2019-06-20T08:24:48.794Z,5.75
2019-06-20T08:30:50.315Z,6.70
2019-06-20T08:36:51.936Z,4.03
2019-06-20T08:42:53.745Z,5.92
2019-06-20T08:48:56.316Z,5.78
2019-06-20T08:54:59.580Z,5.22
2019-06-20T09:07:05.366Z,4.90
2019-06-20T09:13:09.330Z,8.80
2019-06-20T09:19:11.168Z,4.00
2019-06-20T09:25:14.015Z,4.00
2019-06-20T09:31:15.465Z,6.65
2019-06-20T09:37:16.971Z,4.58
2019-06-20T09:43:27.118Z,5.83
2019-06-20T09:49:21.743Z,4.72
2019-06-20T09:55:23.646Z,8.00
2019-06-20T10:01:25.461Z,4.00
2019-06-20T10:07:27.054Z,3.50
2019-06-20T10:13:31.784Z,10.03
2019-06-20T10:19:31.958Z,5.70
2019-06-20T10:25:34.770Z,5.22
2019-06-20T10:31:36.400Z,5.92
2019-06-20T10:37:37.882Z,4.45
2019-06-20T10:43:39.416Z,3.80
2019-06-20T10:49:42.883Z,3.37
2019-06-20T10:55:44.969Z,3.85
2019-06-20T11:01:46.755Z,3.08
2019-06-20T11:07:49.988Z,5.25
2019-06-20T11:13:51.572Z,6.30
2019-06-20T11:19:53.189Z,4.83
2019-06-20T11:25:57.755Z,5.80
2019-06-20T11:32:02.033Z,7.12
2019-06-20T11:38:03.859Z,8.73
2019-06-20T11:44:05.591Z,4.28
2019-06-20T11:50:07.941Z,6.80
2019-06-20T11:56:09.589Z,5.72
2019-06-20T12:02:16.911Z,4.03
2019-06-20T12:08:20.555Z,4.55
2019-06-20T12:14:22.240Z,4.12
2019-06-20T12:20:24.931Z,5.67
2019-06-20T12:26:27.480Z,4.67
2019-06-20T12:32:28.972Z,6.78
2019-06-20T12:38:30.477Z,4.55
2019-06-20T12:44:31.979Z,4.35
2019-06-20T12:50:33.561Z,4.70
2019-06-20T12:56:35.348Z,4.12
2019-06-20T13:02:39.846Z,4.67
2019-06-20T13:08:42.303Z,6.78
2019-06-20T13:14:45.655Z,5.35
2019-06-20T13:20:48.532Z,8.35
2019-06-20T13:26:50.769Z,6.78
2019-06-20T13:32:52.430Z,4.50
2019-06-20T13:38:53.950Z,5.53
2019-06-20T13:44:55.633Z,7.17
2019-06-20T13:50:57.191Z,5.35
2019-06-20T13:56:58.757Z,5.05
2019-06-20T14:03:00.367Z,5.00
2019-06-20T14:09:03.473Z,5.45
2019-06-20T14:15:09.583Z,5.37
2019-06-20T14:21:11.079Z,4.45
2019-06-20T14:27:13.342Z,6.15
2019-06-20T14:33:15.532Z,4.10
2019-06-20T14:39:17.228Z,4.90
2019-06-20T14:45:19.209Z,5.37
2019-06-20T14:51:20.762Z,5.05
2019-06-20T14:57:22.268Z,5.95
2019-06-20T15:03:25.209Z,6.05
2019-06-20T15:09:26.712Z,6.33
2019-06-20T15:15:31.449Z,5.92
2019-06-20T15:21:31.716Z,5.65
2019-06-20T15:27:33.238Z,5.83
2019-06-20T15:46:52.303Z,6.45
2019-06-20T15:52:54.135Z,5.28
2019-06-20T15:58:55.596Z,5.50
2019-06-20T16:04:57.331Z,6.78
2019-06-20T16:10:58.865Z,8.58
2019-06-20T16:17:00.390Z,5.90
2019-06-20T16:23:01.947Z,5.67
2019-06-20T16:29:03.612Z,6.65
2019-06-20T16:35:06.020Z,6.55
2019-06-20T16:41:07.746Z,6.40
2019-06-20T16:47:09.227Z,6.72
2019-06-20T16:53:10.856Z,7.97
2019-06-20T16:59:14.318Z,6.72
2019-06-20T17:05:16.133Z,32.58
2019-06-20T17:11:17.740Z,15.32
2019-06-20T17:17:19.244Z,9.40
2019-06-20T17:23:23.143Z,6.35
2019-06-20T17:29:24.702Z,8.33
2019-06-20T17:35:26.501Z,7.37
2019-06-20T17:41:28.168Z,9.45
2019-06-20T17:47:29.689Z,12.07
2019-06-20T17:53:33.095Z,8.15
2019-06-20T17:59:34.585Z,8.13
2019-06-20T18:05:36.325Z,11.20
2019-06-20T18:11:40.143Z,10.58
2019-06-20T18:17:41.947Z,10.32
2019-06-20T18:27:07.308Z,12.28
2019-06-20T18:33:09.365Z,11.90
2019-06-20T18:39:11.263Z,12.25
2019-06-20T18:45:13.748Z,13.58
2019-06-20T18:51:15.513Z,15.65
2019-06-20T18:57:17.225Z,15.80
2019-06-20T19:03:21.295Z,19.27
2019-06-20T19:09:22.927Z,15.88
2019-06-20T19:15:25.618Z,15.80
2019-06-20T19:21:27.642Z,17.95
2019-06-20T19:27:45.085Z,16.42
2019-06-20T19:33:33.286Z,14.07
2019-06-20T19:39:35.174Z,16.40
2019-06-20T19:45:37.084Z,15.00
2019-06-20T19:51:39.013Z,15.45
2019-06-20T19:57:40.956Z,13.43
2019-06-20T20:03:42.939Z,14.83
2019-06-20T20:09:45.078Z,18.25
2019-06-20T20:15:47.226Z,18.70
2019-06-20T20:21:49.224Z,18.98
2019-06-20T20:27:51.373Z,23.75
2019-06-20T20:33:53.313Z,16.95
2019-06-20T20:39:55.673Z,14.20
2019-06-20T20:45:58.100Z,17.23
2019-06-20T20:51:59.872Z,16.20
2019-06-20T20:58:02.680Z,19.62
2019-06-20T21:04:06.285Z,17.00
2019-06-20T21:10:09.815Z,19.80
2019-06-20T21:16:11.815Z,17.50
2019-06-20T21:22:13.457Z,19.30
2019-06-20T21:28:15.545Z,18.82
2019-06-20T21:34:17.378Z,28.80
2019-06-20T21:40:20.387Z,27.32
2019-06-20T21:46:22.116Z,25.32
2019-06-20T21:52:25.899Z,21.75
2019-06-20T21:58:29.338Z,25.85
2019-06-20T22:04:31.339Z,28.73
2019-06-20T22:10:33.441Z,25.25
2019-06-20T22:16:35.449Z,22.15
2019-06-20T22:22:37.278Z,25.62
2019-06-20T22:28:39.145Z,19.10
2019-06-20T22:34:41.253Z,22.87
2019-06-20T22:40:44.080Z,37.00
2019-06-20T22:46:45.834Z,27.27
2019-06-20T22:52:47.448Z,28.83
2019-06-20T22:58:50.149Z,33.67
2019-06-20T23:04:52.301Z,28.35
2019-06-20T23:10:54.227Z,29.30
2019-06-20T23:16:57.047Z,24.70
2019-06-20T23:22:58.701Z,23.62
2019-06-20T23:29:18.708Z,23.57
2019-06-20T23:35:20.501Z,21.60
2019-06-20T23:41:22.315Z,29.67
2019-06-20T23:47:24.471Z,23.02
2019-06-20T23:53:27.723Z,19.55
2019-06-20T23:59:29.506Z,23.50
